Saint-Malachie, Canada
Current Conditions -  °F | °C
As of 10:00 AM on Thursday 23 Oct 2014 (Local Time) from CYQB Reporting Station
Broken Clouds Broken Clouds  
Wind Chill: 34°   Ceiling: 5300
Heat Index: 43°   Visibility: 30mi
Dew Point: 36°   Wind: 21mph
Humidity: 76%   Direction: 60°ENE
Pressure: 30.16"   Gusts: 33mph
Location:  46.53°N, 70.77°W
Report Text: CYQB 231400Z 06018G29KT 30SM FEW025 BKN053 06/02 A3016 RMK SC1SC6 SLP215
Loading
Personal Weather Stations






























Interactive Weather Map
Tropical Storm Tracking
New forecast layout! Learn more

10-Day Weather Forecast

Advertisements
Track Severe Weather on mobile